createdAt,value
2018-12-09T00:02:03.490Z,5.63
2018-12-09T00:04:34.151Z,7.53
2018-12-09T00:07:04.820Z,5.42
2018-12-09T00:09:33.571Z,8.98
2018-12-09T00:12:02.275Z,5.95
2018-12-09T00:14:31.056Z,5.67
2018-12-09T00:16:59.811Z,3.33
2018-12-09T00:19:28.483Z,3.60
2018-12-09T00:21:57.687Z,4.67
2018-12-09T00:24:26.432Z,2.87
2018-12-09T00:26:55.169Z,6.73
2018-12-09T00:29:23.910Z,6.37
2018-12-09T00:31:52.665Z,4.40
2018-12-09T00:34:21.355Z,6.83
2018-12-09T00:36:50.209Z,2.20
2018-12-09T00:39:18.875Z,5.83
2018-12-09T00:41:47.655Z,4.35
2018-12-09T00:44:17.271Z,4.55
2018-12-09T00:46:45.969Z,7.20
2018-12-09T00:49:14.730Z,8.80
2018-12-09T00:51:43.474Z,5.23
2018-12-09T00:54:12.299Z,5.58
2018-12-09T00:56:41.031Z,7.65
2018-12-09T00:59:09.778Z,7.03
2018-12-09T01:01:38.532Z,5.17
2018-12-09T01:04:07.315Z,5.70
2018-12-09T01:06:36.487Z,11.50
2018-12-09T01:09:05.917Z,5.90
2018-12-09T01:11:34.674Z,5.37
2018-12-09T01:14:03.454Z,10.00
2018-12-09T01:16:32.215Z,8.73
2018-12-09T01:19:00.890Z,6.15
2018-12-09T01:21:29.654Z,7.33
2018-12-09T01:23:58.433Z,7.75
2018-12-09T01:26:27.544Z,7.45
2018-12-09T01:28:56.326Z,10.00
2018-12-09T01:31:25.035Z,12.80
2018-12-09T01:33:53.954Z,9.97
2018-12-09T01:36:22.940Z,12.45
2018-12-09T01:38:51.754Z,11.43
2018-12-09T01:41:20.553Z,9.10
2018-12-09T01:43:49.303Z,10.70
2018-12-09T01:46:18.113Z,8.50
2018-12-09T01:48:47.131Z,11.20
2018-12-09T01:51:15.918Z,8.85
2018-12-09T01:54:11.530Z,11.57
2018-12-09T01:56:40.320Z,11.83
2018-12-09T01:59:09.123Z,10.85
2018-12-09T02:01:37.982Z,9.88
2018-12-09T02:04:07.029Z,10.35
2018-12-09T02:06:36.115Z,9.35
2018-12-09T02:09:07.455Z,11.95
2018-12-09T02:11:36.345Z,15.25
2018-12-09T02:14:05.242Z,13.70
2018-12-09T02:16:34.495Z,13.32
2018-12-09T02:19:16.044Z,22.00
2018-12-09T02:21:45.189Z,15.72
2018-12-09T02:24:14.073Z,13.80
2018-12-09T02:26:42.820Z,19.55
2018-12-09T02:29:11.619Z,17.35
2018-12-09T02:31:40.431Z,14.47
2018-12-09T02:34:09.284Z,15.90
2018-12-09T02:36:38.135Z,13.85
2018-12-09T02:39:09.441Z,14.00
2018-12-09T02:41:38.242Z,13.90
2018-12-09T02:44:07.022Z,17.12
2018-12-09T02:46:36.183Z,11.88
2018-12-09T02:49:04.934Z,13.15
2018-12-09T02:51:33.783Z,12.20
2018-12-09T02:54:02.509Z,13.45
2018-12-09T02:56:31.327Z,12.45
2018-12-09T02:59:00.106Z,11.20
2018-12-09T03:01:28.896Z,11.45
2018-12-09T03:03:57.622Z,10.00
2018-12-09T03:06:26.355Z,10.98
2018-12-09T03:08:55.360Z,9.40
2018-12-09T03:11:24.165Z,9.50
2018-12-09T03:13:52.955Z,10.75
2018-12-09T03:16:21.691Z,13.32
2018-12-09T03:18:50.373Z,10.00
2018-12-09T03:21:19.226Z,8.98
2018-12-09T03:23:48.971Z,14.85
2018-12-09T03:26:17.775Z,13.32
2018-12-09T03:28:47.700Z,14.27
2018-12-09T03:31:16.493Z,13.00
2018-12-09T03:33:45.249Z,13.10
2018-12-09T03:36:14.029Z,12.30
2018-12-09T03:38:42.780Z,12.70
2018-12-09T03:41:11.567Z,13.48
2018-12-09T03:43:40.296Z,13.35
2018-12-09T03:46:09.064Z,14.30
2018-12-09T03:48:37.866Z,12.55
2018-12-09T03:51:06.674Z,11.22
2018-12-09T03:53:36.585Z,11.70
2018-12-09T03:56:05.403Z,15.80
2018-12-09T03:58:34.187Z,14.00
2018-12-09T04:01:02.917Z,19.23
2018-12-09T04:03:31.697Z,12.37
2018-12-09T04:06:00.430Z,13.20
2018-12-09T04:08:29.123Z,17.17
2018-12-09T04:10:57.904Z,20.20
2018-12-09T04:13:26.631Z,21.12
2018-12-09T04:15:55.786Z,24.10
2018-12-09T04:18:26.442Z,20.27
2018-12-09T04:20:55.170Z,25.23
2018-12-09T04:23:23.890Z,22.30
2018-12-09T04:25:52.691Z,24.10
2018-12-09T04:28:22.545Z,26.42
2018-12-09T04:30:51.270Z,22.62
2018-12-09T04:33:20.047Z,23.02
2018-12-09T04:35:48.846Z,26.20
2018-12-09T04:38:17.951Z,29.57
2018-12-09T04:40:46.706Z,26.60
2018-12-09T04:43:15.428Z,33.00
2018-12-09T04:45:44.214Z,29.92
2018-12-09T04:48:14.079Z,32.85
2018-12-09T04:50:42.799Z,40.07
2018-12-09T04:53:11.587Z,26.52
2018-12-09T04:55:40.382Z,29.70
2018-12-09T04:58:09.127Z,28.02
2018-12-09T05:00:53.356Z,20.55
2018-12-09T05:03:22.289Z,26.55
2018-12-09T05:05:51.071Z,27.17
2018-12-09T05:08:19.861Z,21.10
2018-12-09T05:10:48.575Z,17.70
2018-12-09T05:13:17.308Z,19.42
2018-12-09T05:15:46.104Z,27.65
2018-12-09T05:18:14.896Z,17.15
2018-12-09T05:20:43.631Z,25.32
2018-12-09T05:23:12.373Z,21.80
2018-12-09T05:25:41.189Z,27.10
2018-12-09T05:28:09.971Z,23.47
2018-12-09T05:30:38.695Z,26.55
2018-12-09T05:33:07.649Z,23.00
2018-12-09T05:35:36.447Z,26.73
2018-12-09T05:38:05.226Z,20.67
2018-12-09T05:40:34.067Z,17.17
2018-12-09T05:43:02.782Z,19.48
2018-12-09T05:45:31.582Z,21.70
2018-12-09T05:48:00.387Z,23.30
2018-12-09T05:50:29.186Z,21.95
2018-12-09T05:52:57.910Z,39.03
2018-12-09T05:55:26.723Z,25.50
2018-12-09T05:57:55.466Z,18.07
2018-12-09T06:00:24.209Z,15.97
2018-12-09T06:02:56.700Z,16.73
2018-12-09T06:05:25.414Z,14.50
2018-12-09T06:07:54.300Z,7.60
2018-12-09T06:10:23.074Z,9.60
2018-12-09T06:12:51.846Z,10.90
2018-12-09T06:15:20.563Z,2.70
2018-12-09T06:17:49.350Z,4.33
2018-12-09T06:20:18.087Z,4.62
2018-12-09T06:22:46.830Z,6.40
2018-12-09T06:25:15.665Z,4.62
2018-12-09T06:27:44.494Z,3.25
2018-12-09T06:30:13.635Z,4.30
2018-12-09T06:32:43.294Z,2.95
2018-12-09T06:35:12.053Z,2.70
2018-12-09T06:37:40.910Z,4.20
2018-12-09T06:40:09.682Z,3.20
2018-12-09T06:42:38.474Z,2.70
2018-12-09T06:45:07.327Z,2.20
2018-12-09T06:47:36.074Z,2.15
2018-12-09T06:50:07.100Z,6.00
2018-12-09T06:52:35.921Z,2.90
2018-12-09T06:55:05.238Z,2.10
2018-12-09T06:57:33.992Z,3.05
2018-12-09T07:00:03.088Z,1.75
2018-12-09T07:02:31.880Z,6.10
2018-12-09T07:05:00.690Z,4.28
2018-12-09T07:07:29.527Z,2.70
2018-12-09T07:09:58.277Z,1.50
2018-12-09T07:12:27.135Z,3.70
2018-12-09T07:14:55.930Z,3.00
2018-12-09T07:17:24.599Z,2.37
2018-12-09T07:19:53.334Z,1.90
2018-12-09T07:22:22.066Z,1.72
2018-12-09T07:24:50.873Z,0.90
2018-12-09T07:27:19.670Z,1.60
2018-12-09T07:29:48.735Z,2.58
2018-12-09T07:32:17.531Z,3.02
2018-12-09T07:34:46.361Z,5.37
2018-12-09T07:37:15.078Z,2.65
2018-12-09T07:39:43.750Z,1.22
2018-12-09T07:42:12.775Z,3.00
2018-12-09T07:44:41.562Z,1.30
2018-12-09T07:47:10.210Z,0.90
2018-12-09T07:49:39.041Z,1.60
2018-12-09T07:52:07.883Z,2.33
2018-12-09T07:54:36.666Z,1.37
2018-12-09T07:57:05.374Z,2.00
2018-12-09T07:59:34.135Z,1.32
2018-12-09T08:02:02.866Z,6.90
2018-12-09T08:04:31.627Z,2.05
2018-12-09T08:07:00.291Z,1.10
2018-12-09T08:09:28.959Z,3.77
2018-12-09T08:11:57.767Z,3.60
2018-12-09T08:14:26.611Z,2.15
2018-12-09T08:16:56.368Z,3.47
2018-12-09T08:19:25.139Z,2.15
2018-12-09T08:21:53.875Z,1.83
2018-12-09T08:24:22.582Z,1.50
2018-12-09T08:26:51.336Z,2.40
2018-12-09T08:29:20.061Z,2.60
2018-12-09T08:31:48.790Z,2.20
2018-12-09T08:34:17.558Z,1.30
2018-12-09T08:36:46.279Z,1.20
2018-12-09T08:39:14.950Z,1.20
2018-12-09T08:41:43.712Z,1.60
2018-12-09T08:44:12.509Z,1.20
2018-12-09T08:46:41.300Z,2.00
2018-12-09T08:49:10.019Z,1.10
2018-12-09T08:51:38.699Z,1.50
2018-12-09T08:54:07.353Z,1.10
2018-12-09T08:56:36.994Z,2.37
2018-12-09T08:59:05.852Z,1.87
2018-12-09T09:01:34.558Z,1.20
2018-12-09T09:04:03.359Z,2.65
2018-12-09T09:06:32.166Z,2.10
2018-12-09T09:09:00.954Z,2.60
2018-12-09T09:11:29.725Z,3.10
2018-12-09T09:13:58.444Z,2.20
2018-12-09T09:16:27.133Z,4.92
2018-12-09T09:18:55.811Z,1.85
2018-12-09T09:21:24.542Z,2.55
2018-12-09T09:23:53.287Z,1.53
2018-12-09T09:26:22.030Z,5.12
2018-12-09T09:28:50.705Z,1.80
2018-12-09T09:31:19.367Z,1.47
2018-12-09T09:33:48.111Z,3.37
2018-12-09T09:36:16.828Z,0.70
2018-12-09T09:38:45.540Z,0.88
2018-12-09T09:41:14.251Z,1.95
2018-12-09T09:43:42.897Z,1.98
2018-12-09T09:46:11.883Z,1.40
2018-12-09T09:48:40.587Z,1.30
2018-12-09T09:51:09.311Z,2.90
2018-12-09T09:53:37.962Z,2.92
2018-12-09T09:56:06.700Z,1.67
2018-12-09T09:58:35.418Z,2.93
2018-12-09T10:01:04.136Z,3.17
2018-12-09T10:03:32.859Z,2.37
2018-12-09T10:06:01.514Z,4.40
2018-12-09T10:08:30.228Z,6.97
2018-12-09T10:10:58.975Z,3.75
2018-12-09T10:13:27.750Z,5.58
2018-12-09T10:15:56.482Z,5.58
2018-12-09T10:18:25.186Z,3.70
2018-12-09T10:20:53.894Z,8.40
2018-12-09T10:23:22.642Z,10.20
2018-12-09T10:25:51.382Z,5.23
2018-12-09T10:28:20.094Z,11.57
2018-12-09T10:30:48.783Z,14.87
2018-12-09T10:33:17.455Z,10.80
2018-12-09T10:35:46.142Z,10.97
2018-12-09T10:38:15.863Z,9.90
2018-12-09T10:40:44.607Z,8.40
2018-12-09T10:43:13.302Z,9.38
2018-12-09T10:45:41.967Z,12.28
2018-12-09T10:48:11.726Z,10.60
2018-12-09T10:50:40.451Z,10.70
2018-12-09T10:53:09.159Z,5.60
2018-12-09T10:55:37.930Z,7.60
2018-12-09T10:58:06.659Z,11.50
2018-12-09T11:00:42.792Z,10.30
2018-12-09T11:03:11.503Z,6.90
2018-12-09T11:05:40.169Z,14.93
2018-12-09T11:08:08.890Z,12.37
2018-12-09T11:10:37.598Z,12.68
2018-12-09T11:13:06.432Z,7.05
2018-12-09T11:15:35.175Z,9.63
2018-12-09T11:18:03.980Z,11.25
2018-12-09T11:20:32.652Z,9.70
2018-12-09T11:23:01.337Z,14.20
2018-12-09T11:25:30.079Z,9.80
2018-12-09T11:27:58.782Z,15.00
2018-12-09T11:30:27.562Z,11.50
2018-12-09T11:32:56.283Z,11.63
2018-12-09T11:35:24.939Z,15.50
2018-12-09T11:37:53.654Z,10.68
2018-12-09T11:40:22.562Z,17.57
2018-12-09T11:42:51.319Z,13.67
2018-12-09T11:45:20.130Z,17.77
2018-12-09T11:47:48.886Z,13.47
2018-12-09T11:50:17.634Z,17.10
2018-12-09T11:52:46.392Z,12.00
2018-12-09T11:55:15.110Z,13.20
2018-12-09T11:57:43.879Z,14.33
2018-12-09T12:00:13.638Z,11.28
2018-12-09T12:02:43.437Z,15.15
2018-12-09T12:05:12.178Z,17.70
2018-12-09T12:07:40.955Z,25.52
2018-12-09T12:10:09.686Z,16.48
2018-12-09T12:12:38.398Z,11.53
2018-12-09T12:15:07.194Z,14.65
2018-12-09T12:17:35.851Z,12.33
2018-12-09T12:20:04.739Z,18.87
2018-12-09T12:22:33.419Z,17.03
2018-12-09T12:25:02.103Z,15.70
2018-12-09T12:27:30.851Z,17.82
2018-12-09T12:29:59.606Z,12.10
2018-12-09T12:32:28.334Z,14.85
2018-12-09T12:34:57.010Z,14.35
2018-12-09T12:37:25.748Z,13.43
2018-12-09T12:39:54.502Z,18.00
2018-12-09T12:42:23.215Z,9.20
2018-12-09T12:44:52.285Z,13.90
2018-12-09T12:47:21.063Z,11.90
2018-12-09T12:49:49.823Z,11.33
2018-12-09T12:52:18.561Z,15.70
2018-12-09T12:54:47.310Z,14.27
2018-12-09T12:57:15.975Z,17.45
2018-12-09T12:59:44.650Z,12.10
2018-12-09T13:02:13.374Z,11.20
2018-12-09T13:04:42.106Z,9.80
2018-12-09T13:07:10.893Z,12.00
2018-12-09T13:09:39.646Z,16.80
2018-12-09T13:12:08.409Z,11.10
2018-12-09T13:14:37.090Z,13.18
2018-12-09T13:17:05.843Z,15.68
2018-12-09T13:19:34.682Z,14.47
2018-12-09T13:22:03.394Z,16.23
2018-12-09T13:24:32.071Z,10.18
2018-12-09T13:27:00.800Z,12.73
2018-12-09T13:29:29.538Z,16.17
2018-12-09T13:31:58.295Z,14.78
2018-12-09T13:34:27.060Z,11.40
2018-12-09T13:36:55.850Z,16.10
2018-12-09T13:39:24.543Z,15.60
2018-12-09T13:41:53.217Z,14.43
2018-12-09T13:44:21.971Z,15.33
2018-12-09T13:46:50.741Z,14.40
2018-12-09T13:49:19.504Z,6.53
2018-12-09T13:51:48.226Z,13.10
2018-12-09T13:54:16.983Z,15.78
2018-12-09T13:56:45.663Z,11.93
2018-12-09T13:59:14.438Z,15.75
2018-12-09T14:01:43.170Z,9.77
2018-12-09T14:04:11.920Z,10.20
2018-12-09T14:06:40.719Z,13.88
2018-12-09T14:09:09.493Z,10.70
2018-12-09T14:11:38.218Z,9.05
2018-12-09T14:14:06.979Z,6.78
2018-12-09T14:16:35.735Z,9.33
2018-12-09T14:19:04.506Z,12.15
2018-12-09T14:21:33.337Z,10.60
2018-12-09T14:24:02.079Z,10.70
2018-12-09T14:26:30.836Z,10.43
2018-12-09T14:28:59.918Z,12.63
2018-12-09T14:31:30.747Z,11.22
2018-12-09T14:33:59.423Z,8.70
2018-12-09T14:36:28.143Z,10.50
2018-12-09T14:38:57.214Z,8.00
2018-12-09T14:41:25.963Z,11.60
2018-12-09T14:43:54.643Z,9.60
2018-12-09T14:46:23.414Z,12.80
2018-12-09T14:48:52.151Z,7.45
2018-12-09T14:51:20.857Z,10.57
2018-12-09T14:53:49.502Z,6.40
2018-12-09T14:56:18.220Z,8.67
2018-12-09T14:58:46.933Z,6.83
2018-12-09T15:01:16.610Z,7.55
2018-12-09T15:03:46.286Z,5.17
2018-12-09T15:06:15.002Z,8.40
2018-12-09T15:08:43.710Z,7.53
2018-12-09T15:11:12.486Z,7.00
2018-12-09T15:13:41.279Z,13.20
2018-12-09T15:16:10.002Z,6.20
2018-12-09T15:18:38.743Z,7.40
2018-12-09T15:21:07.507Z,8.63
2018-12-09T15:23:36.210Z,12.00
2018-12-09T15:26:04.959Z,10.75
2018-12-09T15:28:33.716Z,13.17
2018-12-09T15:31:02.435Z,7.37
2018-12-09T15:33:31.123Z,13.05
2018-12-09T15:35:59.790Z,8.85
2018-12-09T15:38:28.528Z,14.43
2018-12-09T15:40:57.211Z,8.30
2018-12-09T15:43:25.942Z,13.07
2018-12-09T15:45:55.415Z,12.90
2018-12-09T15:48:24.163Z,8.23
2018-12-09T15:50:52.938Z,9.88
2018-12-09T15:53:21.620Z,8.18
2018-12-09T15:55:50.331Z,8.53
2018-12-09T15:58:19.014Z,9.10
2018-12-09T16:00:53.056Z,12.77
2018-12-09T16:03:21.720Z,8.90
2018-12-09T16:05:50.378Z,7.92
2018-12-09T16:08:19.151Z,10.80
2018-12-09T16:10:48.515Z,12.32
2018-12-09T16:13:17.247Z,18.67
2018-12-09T16:15:45.902Z,18.50
2018-12-09T16:18:14.667Z,10.63
2018-12-09T16:20:43.419Z,10.87
2018-12-09T16:23:12.103Z,18.42
2018-12-09T16:25:40.831Z,17.37
2018-12-09T16:28:09.580Z,19.02
2018-12-09T16:30:38.331Z,19.33
2018-12-09T16:33:08.186Z,21.77
2018-12-09T16:35:36.919Z,15.45
2018-12-09T16:38:05.264Z,22.87
2018-12-09T16:40:34.003Z,27.00
2018-12-09T16:43:02.686Z,29.27
2018-12-09T16:45:31.416Z,28.07
2018-12-09T16:48:00.223Z,19.47
2018-12-09T16:50:28.911Z,19.97
2018-12-09T16:52:57.661Z,15.70
2018-12-09T16:55:27.247Z,21.15
2018-12-09T16:57:56.025Z,10.90
2018-12-09T17:00:24.775Z,18.45
2018-12-09T17:02:53.480Z,30.50
2018-12-09T17:05:22.324Z,27.33
2018-12-09T17:07:51.027Z,33.23
2018-12-09T17:10:19.748Z,28.03
2018-12-09T17:12:48.478Z,29.00
2018-12-09T17:15:17.251Z,27.10
2018-12-09T17:17:46.643Z,27.25
2018-12-09T17:20:15.399Z,26.27
2018-12-09T17:22:44.111Z,24.27
2018-12-09T17:25:12.835Z,27.10
2018-12-09T17:27:41.556Z,21.10
2018-12-09T17:30:10.398Z,24.90
2018-12-09T17:32:39.137Z,27.93
2018-12-09T17:35:07.927Z,28.47
2018-12-09T17:37:37.671Z,25.50
2018-12-09T17:40:08.075Z,27.87
2018-12-09T17:42:37.755Z,18.42
2018-12-09T17:45:06.847Z,21.75
2018-12-09T17:47:35.535Z,22.07
2018-12-09T17:50:04.324Z,25.88
2018-12-09T17:52:33.074Z,28.33
2018-12-09T17:55:02.014Z,25.80
2018-12-09T17:57:30.762Z,22.98
2018-12-09T17:59:59.566Z,25.95
2018-12-09T18:02:29.071Z,28.75
2018-12-09T18:04:58.147Z,22.67
2018-12-09T18:07:26.814Z,21.10
2018-12-09T18:09:55.508Z,19.67
2018-12-09T18:12:24.275Z,19.10
2018-12-09T18:14:52.955Z,20.65
2018-12-09T18:17:21.659Z,19.47
2018-12-09T18:19:50.351Z,17.93
2018-12-09T18:22:19.014Z,25.03
2018-12-09T18:24:47.723Z,21.00
2018-12-09T18:27:17.542Z,23.25
2018-12-09T18:29:46.231Z,18.57
2018-12-09T18:32:14.962Z,25.60
2018-12-09T18:34:43.711Z,26.40
2018-12-09T18:37:12.441Z,23.57
2018-12-09T18:39:41.370Z,27.07
2018-12-09T18:42:10.107Z,25.83
2018-12-09T18:44:38.902Z,31.17
2018-12-09T18:47:07.654Z,23.15
2018-12-09T18:49:36.862Z,22.75
2018-12-09T18:52:05.583Z,26.45
2018-12-09T18:54:34.271Z,25.67
2018-12-09T18:57:03.079Z,26.15
2018-12-09T18:59:31.859Z,24.87
2018-12-09T19:02:00.527Z,27.43
2018-12-09T19:04:29.253Z,25.30
2018-12-09T19:06:57.987Z,32.10
2018-12-09T19:09:26.726Z,31.23
2018-12-09T19:11:56.491Z,26.37
2018-12-09T19:14:25.198Z,30.00
2018-12-09T19:16:53.963Z,20.00
2018-12-09T19:19:22.629Z,30.70
2018-12-09T19:21:51.354Z,25.23
2018-12-09T19:24:20.119Z,28.63
2018-12-09T19:26:48.876Z,30.20
2018-12-09T19:29:17.553Z,23.40
2018-12-09T19:31:46.247Z,18.00
2018-12-09T19:34:15.651Z,27.42
2018-12-09T19:36:44.411Z,27.40
2018-12-09T19:39:13.150Z,19.57
2018-12-09T19:41:43.854Z,22.87
2018-12-09T19:44:12.615Z,25.20
2018-12-09T19:46:41.383Z,24.65
2018-12-09T19:49:10.146Z,21.02
2018-12-09T19:51:38.844Z,20.93
2018-12-09T19:54:07.707Z,22.73
2018-12-09T19:56:36.448Z,23.75
2018-12-09T19:59:05.175Z,23.45
2018-12-09T20:01:33.964Z,19.82
2018-12-09T20:04:02.678Z,28.30
2018-12-09T20:06:31.412Z,25.67
2018-12-09T20:09:00.155Z,27.90
2018-12-09T20:11:28.850Z,33.90
2018-12-09T20:13:57.622Z,26.60
2018-12-09T20:16:26.391Z,26.03
2018-12-09T20:18:55.113Z,29.77
2018-12-09T20:21:23.867Z,38.25
2018-12-09T20:23:52.635Z,24.18
2018-12-09T20:26:21.551Z,24.87
2018-12-09T20:28:50.267Z,28.27
2018-12-09T20:31:19.046Z,24.07
2018-12-09T20:33:47.783Z,19.70
2018-12-09T20:36:16.538Z,24.03
2018-12-09T20:38:45.323Z,23.13
2018-12-09T20:41:14.096Z,20.90
2018-12-09T20:43:42.964Z,18.63
2018-12-09T20:46:11.731Z,23.03
2018-12-09T20:48:40.501Z,27.32
2018-12-09T20:51:09.279Z,26.05
2018-12-09T20:53:38.063Z,20.48
2018-12-09T20:56:06.829Z,17.87
2018-12-09T20:58:35.608Z,21.68
2018-12-09T21:01:04.375Z,19.17
2018-12-09T21:03:33.246Z,21.27
2018-12-09T21:06:02.957Z,16.50
2018-12-09T21:08:31.721Z,16.17
2018-12-09T21:11:00.479Z,25.70
2018-12-09T21:13:29.252Z,18.90
2018-12-09T21:15:57.996Z,20.97
2018-12-09T21:18:26.825Z,16.80
2018-12-09T21:20:55.661Z,20.80
2018-12-09T21:23:24.507Z,28.27
2018-12-09T21:25:53.227Z,25.07
2018-12-09T21:28:21.956Z,19.80
2018-12-09T21:30:50.761Z,26.00
2018-12-09T21:33:19.533Z,20.57
2018-12-09T21:35:48.286Z,21.13
2018-12-09T21:38:17.040Z,22.40
2018-12-09T21:40:45.754Z,17.87
2018-12-09T21:43:14.531Z,19.50
2018-12-09T21:45:43.270Z,21.93
2018-12-09T21:48:13.099Z,20.77
2018-12-09T21:50:41.828Z,20.05
2018-12-09T21:53:10.624Z,19.53
2018-12-09T21:55:39.329Z,23.77
2018-12-09T21:58:08.091Z,25.32
2018-12-09T22:00:36.822Z,22.87
2018-12-09T22:03:05.620Z,20.53
2018-12-09T22:05:34.376Z,20.20
2018-12-09T22:08:03.138Z,18.25
2018-12-09T22:10:31.911Z,22.35
2018-12-09T22:13:00.731Z,23.73
2018-12-09T22:15:29.782Z,25.27
2018-12-09T22:17:58.594Z,18.73
2018-12-09T22:20:27.384Z,26.30
2018-12-09T22:22:56.115Z,19.05
2018-12-09T22:25:24.879Z,23.70
2018-12-09T22:27:53.651Z,23.20
2018-12-09T22:30:22.382Z,28.43
2018-12-09T22:32:51.099Z,24.25
2018-12-09T22:35:19.847Z,24.47
2018-12-09T22:37:48.528Z,28.03
2018-12-09T22:40:17.315Z,19.17
2018-12-09T22:42:46.047Z,22.35
2018-12-09T22:45:14.839Z,22.25
2018-12-09T22:47:43.567Z,18.13
2018-12-09T22:50:12.360Z,25.48
2018-12-09T22:52:41.100Z,20.30
2018-12-09T22:55:09.814Z,26.05
2018-12-09T22:57:38.543Z,33.98
2018-12-09T23:00:14.324Z,24.32
2018-12-09T23:02:49.552Z,25.92
2018-12-09T23:05:18.278Z,25.35
2018-12-09T23:07:52.335Z,22.42
2018-12-09T23:10:21.175Z,20.90
2018-12-09T23:12:49.927Z,15.80
2018-12-09T23:15:18.647Z,20.12
2018-12-09T23:17:47.366Z,28.17
2018-12-09T23:20:16.106Z,24.85
2018-12-09T23:22:44.870Z,26.33
2018-12-09T23:25:13.590Z,22.58
2018-12-09T23:27:42.246Z,19.85
2018-12-09T23:30:11.030Z,18.95
2018-12-09T23:32:39.726Z,15.93
2018-12-09T23:35:08.451Z,17.35
2018-12-09T23:37:37.174Z,17.27
2018-12-09T23:40:07.755Z,15.88
2018-12-09T23:42:36.494Z,16.82
2018-12-09T23:45:05.954Z,20.27
2018-12-09T23:47:34.797Z,19.07
2018-12-09T23:50:03.746Z,18.77
2018-12-09T23:52:32.487Z,25.45
2018-12-09T23:55:01.508Z,15.97
2018-12-09T23:57:30.314Z,18.82
2018-12-09T23:59:59.046Z,14.43
